createdAt,value
2023-08-20T00:04:07.856Z,7.55
2023-08-20T00:09:12.442Z,7.97
2023-08-20T00:14:18.653Z,7.80
2023-08-20T00:19:21.028Z,8.00
2023-08-20T00:24:24.514Z,7.80
2023-08-20T00:29:26.353Z,8.35
2023-08-20T00:34:28.220Z,8.50
2023-08-20T00:39:31.711Z,7.78
2023-08-20T00:44:33.855Z,7.95
2023-08-20T00:49:35.957Z,8.80
2023-08-20T00:54:39.588Z,7.63
2023-08-20T00:59:43.248Z,7.43
2023-08-20T01:04:48.027Z,7.20
2023-08-20T01:09:58.972Z,7.88
2023-08-20T01:20:05.219Z,7.78
2023-08-20T01:25:48.487Z,8.05
2023-08-20T01:35:54.183Z,7.15
2023-08-20T01:40:57.580Z,7.90
2023-08-20T01:45:59.446Z,7.85
2023-08-20T01:51:01.379Z,9.18
2023-08-20T01:56:03.933Z,7.40
2023-08-20T02:01:05.735Z,8.10
2023-08-20T02:06:08.710Z,8.70
2023-08-20T02:11:11.225Z,8.65
2023-08-20T02:16:12.995Z,8.23
2023-08-20T02:21:15.104Z,7.32
2023-08-20T02:26:17.008Z,9.05
2023-08-20T02:31:19.364Z,8.70
2023-08-20T02:36:22.047Z,9.00
2023-08-20T02:41:27.640Z,10.15
2023-08-20T02:46:29.678Z,9.18
2023-08-20T02:51:31.554Z,10.43
2023-08-20T02:56:33.313Z,9.40
2023-08-20T03:01:38.752Z,8.82
2023-08-20T03:06:40.810Z,8.55
2023-08-20T03:11:43.219Z,8.32
2023-08-20T03:16:44.986Z,9.98
2023-08-20T03:21:46.722Z,9.18
2023-08-20T03:26:49.685Z,8.38
2023-08-20T03:31:52.956Z,8.02
2023-08-20T03:36:55.873Z,9.20
2023-08-20T03:41:58.017Z,8.65
2023-08-20T03:46:59.902Z,9.15
2023-08-20T03:52:03.337Z,9.30
2023-08-20T03:57:05.944Z,10.60
2023-08-20T04:02:08.158Z,9.05
2023-08-20T04:07:11.328Z,8.82
2023-08-20T04:12:13.343Z,9.13
2023-08-20T04:17:16.206Z,9.20
2023-08-20T04:22:19.098Z,9.35
2023-08-20T04:27:21.400Z,11.98
2023-08-20T04:32:23.727Z,10.00
2023-08-20T04:37:25.425Z,10.35
2023-08-20T04:42:27.306Z,9.43
2023-08-20T04:47:29.380Z,8.50
2023-08-20T04:52:31.315Z,9.55
2023-08-20T04:57:33.203Z,9.43
2023-08-20T05:02:35.515Z,9.18
2023-08-20T05:07:38.249Z,8.70
2023-08-20T05:12:40.068Z,8.77
2023-08-20T05:17:42.159Z,8.48
2023-08-20T05:22:45.270Z,9.27
2023-08-20T05:27:47.363Z,8.40
2023-08-20T05:32:49.359Z,9.30
2023-08-20T05:37:51.361Z,8.65
2023-08-20T05:42:53.163Z,9.55
2023-08-20T05:47:55.067Z,8.88
2023-08-20T05:52:57.170Z,10.10
2023-08-20T05:57:59.182Z,9.27
2023-08-20T06:03:01.095Z,10.35
2023-08-20T06:08:02.989Z,10.18
2023-08-20T06:13:05.202Z,10.48
2023-08-20T06:18:07.438Z,10.60
2023-08-20T06:23:09.766Z,9.65
2023-08-20T06:28:11.864Z,10.15
2023-08-20T06:33:13.907Z,9.50
2023-08-20T06:38:17.794Z,10.38
2023-08-20T06:43:19.802Z,10.02
2023-08-20T06:48:23.543Z,9.25
2023-08-20T06:53:25.385Z,9.88
2023-08-20T06:58:27.566Z,9.93
2023-08-20T07:03:29.604Z,9.18
2023-08-20T07:08:31.454Z,10.50
2023-08-20T07:13:33.214Z,10.82
2023-08-20T07:18:35.394Z,9.23
2023-08-20T07:23:37.447Z,9.32
2023-08-20T07:28:59.492Z,10.52
2023-08-20T07:34:06.036Z,8.25
2023-08-20T07:39:09.944Z,8.88
2023-08-20T07:44:13.145Z,7.30
2023-08-20T07:49:15.147Z,7.85
2023-08-20T07:54:16.992Z,8.68
2023-08-20T07:59:18.785Z,8.48
2023-08-20T08:04:21.663Z,9.95
2023-08-20T08:09:29.722Z,8.88
2023-08-20T08:14:31.655Z,9.63
2023-08-20T08:19:33.807Z,8.23
2023-08-20T08:24:35.823Z,8.48
2023-08-20T08:29:37.735Z,9.68
2023-08-20T08:34:40.296Z,9.57
2023-08-20T08:39:42.188Z,9.00
2023-08-20T08:44:44.958Z,7.90
2023-08-20T08:49:47.757Z,8.98
2023-08-20T08:54:50.026Z,8.23
2023-08-20T08:59:51.890Z,9.00
2023-08-20T09:04:54.605Z,8.88
2023-08-20T09:10:00.890Z,7.95
2023-08-20T09:15:02.926Z,8.38
2023-08-20T09:20:05.746Z,8.65
2023-08-20T09:25:08.029Z,8.57
2023-08-20T09:30:11.436Z,9.35
2023-08-20T09:35:19.752Z,9.07
2023-08-20T09:40:21.588Z,8.93
2023-08-20T09:45:29.563Z,8.55
2023-08-20T09:50:37.806Z,8.35
2023-08-20T09:55:42.538Z,8.63
2023-08-20T10:00:45.443Z,8.35
2023-08-20T10:05:50.709Z,7.40
2023-08-20T10:10:52.592Z,10.43
2023-08-20T10:15:59.189Z,7.63
2023-08-20T10:21:04.443Z,7.35
2023-08-20T10:26:11.589Z,8.10
2023-08-20T10:31:17.341Z,7.97
2023-08-20T10:36:27.103Z,7.15
2023-08-20T10:41:31.657Z,7.95
2023-08-20T10:46:36.221Z,8.23
2023-08-20T10:51:39.038Z,6.50
2023-08-20T10:56:54.304Z,7.45
2023-08-20T11:01:58.138Z,7.18
2023-08-20T11:07:01.151Z,7.28
2023-08-20T11:12:03.354Z,8.45
2023-08-20T11:17:05.460Z,7.38
2023-08-20T11:22:07.293Z,7.15
2023-08-20T11:27:12.997Z,5.97
2023-08-20T11:32:16.598Z,6.70
2023-08-20T11:37:24.840Z,5.93
2023-08-20T11:42:27.330Z,4.90
2023-08-20T11:47:29.646Z,6.07
2023-08-20T11:52:33.767Z,7.70
2023-08-20T11:57:36.066Z,4.80
2023-08-20T12:02:40.349Z,5.70
2023-08-20T12:07:42.536Z,6.03
2023-08-20T12:12:45.421Z,6.28
2023-08-20T12:18:01.523Z,5.50
2023-08-20T12:23:07.106Z,4.93
2023-08-20T12:28:09.520Z,6.07
2023-08-20T12:33:15.130Z,6.13
2023-08-20T12:38:17.415Z,6.68
2023-08-20T12:43:19.181Z,5.65
2023-08-20T12:48:21.930Z,5.97
2023-08-20T12:53:24.000Z,6.32
2023-08-20T12:58:28.694Z,6.90
2023-08-20T13:03:31.918Z,5.18
2023-08-20T13:08:34.435Z,5.70
2023-08-20T13:13:36.753Z,5.53
2023-08-20T13:18:39.221Z,4.93
2023-08-20T13:23:42.091Z,6.22
2023-08-20T13:28:43.888Z,5.70
2023-08-20T13:33:45.666Z,5.50
2023-08-20T13:38:47.524Z,6.07
2023-08-20T13:43:49.780Z,6.97
2023-08-20T13:48:53.094Z,5.00
2023-08-20T13:53:56.554Z,5.82
2023-08-20T13:58:58.278Z,4.95
2023-08-20T14:04:00.285Z,5.75
2023-08-20T14:09:02.248Z,5.10
2023-08-20T14:14:04.258Z,5.05
2023-08-20T14:19:06.103Z,4.60
2023-08-20T14:24:08.264Z,5.55
2023-08-20T14:29:11.388Z,4.85
2023-08-20T14:34:13.122Z,5.32
2023-08-20T14:39:15.298Z,5.40
2023-08-20T14:44:17.370Z,5.03
2023-08-20T14:49:20.530Z,5.80
2023-08-20T14:54:22.270Z,5.10
2023-08-20T14:59:25.417Z,4.70
2023-08-20T15:04:28.932Z,4.35
2023-08-20T15:09:30.983Z,4.60
2023-08-20T15:14:32.775Z,4.22
2023-08-20T15:19:34.859Z,4.47
2023-08-20T15:24:36.930Z,5.32
2023-08-20T15:29:38.769Z,4.80
2023-08-20T15:34:43.202Z,4.45
2023-08-20T15:39:45.345Z,4.40
2023-08-20T15:44:50.032Z,5.25
2023-08-20T15:49:52.816Z,4.57
2023-08-20T15:54:54.902Z,5.47
2023-08-20T15:59:56.986Z,5.30
2023-08-20T16:05:00.356Z,5.32
2023-08-20T16:10:02.690Z,6.35
2023-08-20T16:15:07.376Z,7.65
2023-08-20T16:20:09.644Z,5.78
2023-08-20T16:25:11.687Z,7.05
2023-08-20T16:30:15.501Z,5.85
2023-08-20T16:35:17.686Z,6.45
2023-08-20T16:40:23.380Z,6.03
2023-08-20T16:45:28.117Z,6.78
2023-08-20T16:50:30.171Z,5.95
2023-08-20T16:55:33.504Z,6.22
2023-08-20T17:00:35.845Z,6.57
2023-08-20T17:05:39.070Z,6.47
2023-08-20T17:10:41.902Z,6.50
2023-08-20T17:15:44.262Z,5.43
2023-08-20T17:20:46.729Z,5.88
2023-08-20T17:25:49.117Z,5.90
2023-08-20T17:30:54.154Z,5.50
2023-08-20T17:35:57.523Z,6.30
2023-08-20T17:40:59.405Z,5.63
2023-08-20T17:46:01.439Z,5.63
2023-08-20T17:51:03.200Z,5.95
2023-08-20T17:56:06.787Z,6.45
2023-08-20T18:01:08.746Z,5.35
2023-08-20T18:06:11.091Z,6.88
2023-08-20T18:11:13.205Z,5.88
2023-08-20T18:16:16.411Z,6.65
2023-08-20T18:21:18.470Z,5.72
2023-08-20T18:26:20.465Z,5.35
2023-08-20T18:31:22.588Z,5.85
2023-08-20T18:36:26.718Z,5.32
2023-08-20T18:41:29.189Z,5.70
2023-08-20T18:46:31.519Z,5.40
2023-08-20T18:51:38.518Z,6.60
2023-08-20T18:56:41.122Z,6.53
2023-08-20T19:01:42.872Z,6.35
2023-08-20T19:06:45.554Z,6.10
2023-08-20T19:11:47.621Z,6.72
2023-08-20T19:16:49.482Z,10.77
2023-08-20T19:21:51.637Z,21.05
2023-08-20T19:26:53.392Z,13.30
2023-08-20T19:31:55.275Z,7.75
2023-08-20T19:36:57.317Z,11.43
2023-08-20T19:41:59.093Z,6.65
2023-08-20T19:47:01.089Z,5.60
2023-08-20T19:52:03.463Z,7.07
2023-08-20T19:57:05.321Z,6.00
2023-08-20T20:02:07.528Z,5.82
2023-08-20T20:07:22.172Z,6.28
2023-08-20T20:12:26.039Z,6.05
2023-08-20T20:17:28.087Z,6.47
2023-08-20T20:22:30.451Z,6.82
2023-08-20T20:27:35.539Z,6.70
2023-08-20T20:32:40.141Z,6.88
2023-08-20T20:37:42.502Z,6.55
2023-08-20T20:42:44.665Z,6.00
2023-08-20T20:47:46.763Z,7.03
2023-08-20T20:52:49.711Z,7.80
2023-08-20T20:57:51.600Z,6.57
2023-08-20T21:02:53.565Z,7.88
2023-08-20T21:07:55.705Z,7.43
2023-08-20T21:12:57.577Z,6.78
2023-08-20T21:17:59.573Z,7.57
2023-08-20T21:23:01.583Z,7.72
2023-08-20T21:28:03.750Z,12.48
2023-08-20T21:33:05.804Z,6.72
2023-08-20T21:38:08.453Z,6.80
2023-08-20T21:43:10.552Z,6.53
2023-08-20T21:48:12.351Z,6.97
2023-08-20T21:53:14.139Z,6.75
2023-08-20T21:58:16.121Z,6.40
2023-08-20T22:03:18.065Z,6.85
2023-08-20T22:08:19.953Z,7.13
2023-08-20T22:13:24.032Z,7.80
2023-08-20T22:18:25.980Z,8.07
2023-08-20T22:23:28.283Z,6.55
2023-08-20T22:28:30.580Z,6.68
2023-08-20T22:33:32.791Z,7.47
2023-08-20T22:38:34.606Z,7.32
2023-08-20T22:43:36.420Z,7.18
2023-08-20T22:48:38.808Z,6.63
2023-08-20T22:53:40.592Z,7.53
2023-08-20T22:58:45.340Z,6.70
2023-08-20T23:03:47.350Z,7.15
2023-08-20T23:08:49.364Z,6.63
2023-08-20T23:13:55.354Z,7.28
2023-08-20T23:18:58.285Z,7.22
2023-08-20T23:24:00.149Z,7.72
2023-08-20T23:29:05.310Z,7.82
2023-08-20T23:34:07.340Z,8.10
2023-08-20T23:39:09.790Z,7.68
2023-08-20T23:44:15.047Z,9.55
2023-08-20T23:49:17.643Z,7.32
2023-08-20T23:54:20.754Z,7.90
2023-08-20T23:59:23.813Z,8.40
